createdAt,value
2023-04-28T00:00:15.052Z,11.20
2023-04-28T00:02:43.478Z,11.40
2023-04-28T00:05:12.483Z,11.20
2023-04-28T00:07:41.022Z,12.00
2023-04-28T00:10:11.066Z,12.03
2023-04-28T00:12:39.789Z,12.00
2023-04-28T00:15:09.307Z,11.50
2023-04-28T00:17:39.251Z,11.70
2023-04-28T00:20:09.683Z,12.00
2023-04-28T00:22:42.651Z,13.23
2023-04-28T00:25:11.482Z,12.07
2023-04-28T00:27:39.804Z,13.37
2023-04-28T00:30:11.273Z,12.27
2023-04-28T00:32:42.890Z,13.90
2023-04-28T00:35:11.525Z,12.60
2023-04-28T00:37:40.703Z,13.93
2023-04-28T00:40:11.142Z,13.43
2023-04-28T00:42:39.433Z,13.23
2023-04-28T00:45:08.936Z,12.40
2023-04-28T00:47:41.269Z,13.13
2023-04-28T00:50:11.535Z,12.67
2023-04-28T00:52:50.176Z,12.90
2023-04-28T00:55:19.892Z,13.60
2023-04-28T00:57:48.362Z,12.87
2023-04-28T01:00:17.984Z,13.03
2023-04-28T01:02:47.779Z,12.23
2023-04-28T01:05:16.698Z,11.60
2023-04-28T01:07:45.489Z,13.60
2023-04-28T01:10:13.883Z,12.00
2023-04-28T01:12:42.157Z,11.87
2023-04-28T01:15:18.429Z,11.20
2023-04-28T01:17:49.406Z,12.60
2023-04-28T01:20:18.319Z,12.90
2023-04-28T01:22:46.883Z,11.90
2023-04-28T01:25:17.489Z,12.30
2023-04-28T01:27:45.771Z,12.07
2023-04-28T01:30:14.461Z,12.43
2023-04-28T01:32:42.763Z,13.00
2023-04-28T01:35:11.283Z,13.40
2023-04-28T01:37:39.761Z,12.60
2023-04-28T01:40:09.864Z,12.40
2023-04-28T01:42:39.515Z,12.30
2023-04-28T01:45:09.509Z,12.07
2023-04-28T01:47:38.753Z,12.67
2023-04-28T01:50:08.595Z,12.87
2023-04-28T01:52:37.669Z,12.47
2023-04-28T01:55:07.555Z,13.13
2023-04-28T01:57:41.017Z,12.80
2023-04-28T02:00:11.112Z,12.93
2023-04-28T02:02:49.973Z,13.23
2023-04-28T02:05:24.462Z,13.40
2023-04-28T02:07:53.672Z,12.43
2023-04-28T02:10:22.123Z,12.13
2023-04-28T02:12:52.174Z,13.80
2023-04-28T02:15:22.218Z,12.90
2023-04-28T02:17:50.723Z,12.37
2023-04-28T02:20:19.439Z,12.50
2023-04-28T02:22:47.940Z,13.47
2023-04-28T02:25:16.297Z,13.40
2023-04-28T02:27:44.586Z,13.40
2023-04-28T02:30:14.867Z,12.33
2023-04-28T02:32:43.087Z,13.27
2023-04-28T02:35:11.620Z,12.57
2023-04-28T02:37:40.185Z,14.00
2023-04-28T02:40:10.238Z,13.47
2023-04-28T02:42:38.579Z,12.73
2023-04-28T02:45:08.423Z,13.47
2023-04-28T02:47:38.277Z,14.10
2023-04-28T02:50:08.529Z,12.90
2023-04-28T02:52:39.624Z,13.70
2023-04-28T02:55:09.180Z,13.33
2023-04-28T02:57:37.574Z,13.87
2023-04-28T03:00:08.454Z,12.20
2023-04-28T03:02:48.180Z,13.10
2023-04-28T03:05:16.979Z,13.47
2023-04-28T03:07:45.257Z,12.83
2023-04-28T03:10:13.650Z,14.20
2023-04-28T03:12:44.789Z,14.10
2023-04-28T03:15:14.158Z,14.30
2023-04-28T03:17:43.391Z,14.10
2023-04-28T03:20:17.067Z,13.40
2023-04-28T03:22:46.313Z,13.33
2023-04-28T03:25:14.807Z,14.03
2023-04-28T03:27:49.391Z,14.30
2023-04-28T03:30:20.399Z,14.17
2023-04-28T03:32:48.695Z,14.70
2023-04-28T03:35:18.695Z,13.70
2023-04-28T03:37:46.937Z,14.83
2023-04-28T03:40:15.238Z,14.90
2023-04-28T03:43:16.249Z,15.20
2023-04-28T03:46:07.360Z,14.70
2023-04-28T03:48:35.975Z,15.03
2023-04-28T03:51:05.878Z,15.10
2023-04-28T03:53:34.243Z,13.70
2023-04-28T03:56:02.523Z,14.70
2023-04-28T03:58:30.805Z,14.33
2023-04-28T04:01:00.782Z,13.80
2023-04-28T04:03:33.633Z,14.97
2023-04-28T04:06:02.882Z,15.47
2023-04-28T04:08:33.337Z,15.83
2023-04-28T04:11:01.900Z,15.13
2023-04-28T04:13:30.258Z,14.57
2023-04-28T04:15:59.204Z,15.33
2023-04-28T04:18:28.701Z,15.87
2023-04-28T04:21:19.637Z,14.80
2023-04-28T04:23:50.274Z,16.33
2023-04-28T04:26:18.711Z,15.07
2023-04-28T04:28:49.324Z,15.80
2023-04-28T04:31:19.491Z,15.20
2023-04-28T04:33:48.692Z,15.80
2023-04-28T04:36:17.781Z,16.43
2023-04-28T04:38:46.092Z,16.10
2023-04-28T04:41:20.747Z,16.93
2023-04-28T04:43:50.021Z,16.90
2023-04-28T04:46:19.039Z,16.50
2023-04-28T04:48:47.595Z,16.90
2023-04-28T04:51:16.068Z,17.70
2023-04-28T04:53:44.504Z,16.77
2023-04-28T04:56:12.885Z,16.60
2023-04-28T04:58:45.114Z,17.23
2023-04-28T05:01:27.170Z,17.83
2023-04-28T05:03:55.985Z,17.23
2023-04-28T05:06:24.634Z,17.53
2023-04-28T05:08:53.055Z,18.33
2023-04-28T05:11:21.520Z,18.47
2023-04-28T05:13:51.452Z,17.93
2023-04-28T05:16:19.956Z,17.83
2023-04-28T05:19:00.503Z,17.83
2023-04-28T05:21:28.912Z,17.53
2023-04-28T05:23:57.506Z,17.90
2023-04-28T05:26:26.231Z,19.40
2023-04-28T05:29:02.132Z,18.73
2023-04-28T05:31:30.880Z,19.30
2023-04-28T05:34:01.444Z,17.60
2023-04-28T05:36:29.866Z,19.53
2023-04-28T05:38:58.293Z,19.00
2023-04-28T05:41:29.928Z,20.20
2023-04-28T05:43:59.718Z,20.03
2023-04-28T05:46:31.120Z,20.57
2023-04-28T05:49:01.463Z,20.63
2023-04-28T05:51:34.805Z,20.63
2023-04-28T05:54:04.191Z,21.90
2023-04-28T05:56:35.906Z,23.70
2023-04-28T05:59:06.288Z,22.13
2023-04-28T06:01:34.778Z,24.23
2023-04-28T06:04:03.504Z,23.33
2023-04-28T06:06:34.145Z,23.93
2023-04-28T06:09:06.000Z,23.30
2023-04-28T06:11:35.156Z,25.13
2023-04-28T06:14:06.008Z,24.37
2023-04-28T06:16:34.375Z,24.80
2023-04-28T06:19:06.660Z,24.17
2023-04-28T06:21:35.023Z,25.10
2023-04-28T06:24:05.092Z,25.13
2023-04-28T06:26:33.489Z,23.93
2023-04-28T06:29:13.101Z,22.20
2023-04-28T06:31:42.369Z,21.67
2023-04-28T06:34:11.012Z,22.87
2023-04-28T06:36:39.347Z,22.90
2023-04-28T06:39:08.288Z,22.60
2023-04-28T06:41:36.792Z,25.90
2023-04-28T06:44:07.877Z,26.53
2023-04-28T06:46:38.315Z,25.80
2023-04-28T06:49:06.806Z,25.97
2023-04-28T06:51:37.367Z,25.60
2023-04-28T06:54:05.952Z,26.60
2023-04-28T06:56:36.856Z,25.47
2023-04-28T06:59:05.298Z,25.63
2023-04-28T07:01:35.064Z,26.20
2023-04-28T07:04:03.670Z,24.27
2023-04-28T07:06:32.506Z,25.47
2023-04-28T07:09:00.960Z,24.13
2023-04-28T07:11:29.175Z,25.87
2023-04-28T07:13:57.528Z,26.67
2023-04-28T07:16:26.829Z,24.87
2023-04-28T07:18:57.158Z,25.80
2023-04-28T07:21:25.992Z,27.57
2023-04-28T07:23:57.028Z,26.60
2023-04-28T07:26:25.672Z,25.00
2023-04-28T07:28:53.973Z,28.47
2023-04-28T07:31:22.436Z,27.83
2023-04-28T07:33:50.960Z,26.10
2023-04-28T07:36:23.929Z,31.27
2023-04-28T07:38:52.240Z,27.10
2023-04-28T07:41:20.808Z,26.23
2023-04-28T07:43:49.216Z,25.43
2023-04-28T07:46:17.707Z,28.97
2023-04-28T07:48:46.747Z,25.30
2023-04-28T07:51:15.149Z,28.73
2023-04-28T07:53:44.816Z,26.23
2023-04-28T07:56:13.447Z,25.43
2023-04-28T07:58:43.898Z,27.07
2023-04-28T08:01:12.415Z,28.27
2023-04-28T08:03:41.413Z,28.30
2023-04-28T08:06:09.929Z,27.27
2023-04-28T08:08:38.366Z,29.00
2023-04-28T08:11:08.387Z,28.23
2023-04-28T08:13:37.049Z,30.70
2023-04-28T08:16:06.052Z,27.60
2023-04-28T08:18:40.988Z,30.60
2023-04-28T08:21:09.994Z,28.57
2023-04-28T08:23:38.386Z,26.00
2023-04-28T08:26:08.289Z,25.40
2023-04-28T08:28:38.686Z,26.73
2023-04-28T08:31:07.256Z,28.60
2023-04-28T08:33:35.762Z,26.43
2023-04-28T08:36:05.062Z,27.87
2023-04-28T08:38:33.350Z,25.77
2023-04-28T08:41:01.625Z,23.20
2023-04-28T08:43:33.385Z,23.70
2023-04-28T08:46:05.265Z,26.30
2023-04-28T08:48:42.710Z,25.70
2023-04-28T08:51:17.048Z,24.60
2023-04-28T08:56:28.558Z,27.40
2023-04-28T08:58:58.548Z,27.33
2023-04-28T09:01:28.065Z,28.67
2023-04-28T09:03:57.824Z,28.50
2023-04-28T09:06:26.393Z,27.33
2023-04-28T09:08:54.979Z,27.20
2023-04-28T09:11:25.193Z,27.13
2023-04-28T09:13:53.654Z,31.87
2023-04-28T09:16:23.696Z,31.13
2023-04-28T09:19:04.433Z,28.83
2023-04-28T09:21:32.805Z,29.10
2023-04-28T09:24:13.737Z,29.73
2023-04-28T09:26:55.360Z,30.20
2023-04-28T09:29:24.241Z,29.87
2023-04-28T09:31:54.633Z,31.63
2023-04-28T09:34:23.238Z,29.97
2023-04-28T09:36:51.722Z,28.90
2023-04-28T09:39:31.890Z,29.37
2023-04-28T09:42:03.724Z,28.03
2023-04-28T09:44:32.224Z,28.00
2023-04-28T09:47:02.580Z,28.43
2023-04-28T09:49:31.267Z,25.20
2023-04-28T09:52:14.337Z,26.37
2023-04-28T09:57:25.874Z,20.27
2023-04-28T09:59:55.259Z,22.47
2023-04-28T10:05:00.364Z,20.93
2023-04-28T10:07:30.872Z,19.70
2023-04-28T10:09:59.667Z,21.87
2023-04-28T10:12:28.358Z,19.90
2023-04-28T10:14:57.472Z,21.77
2023-04-28T10:17:29.343Z,19.70
2023-04-28T10:20:01.809Z,20.23
2023-04-28T10:22:55.990Z,21.47
2023-04-28T10:25:30.072Z,21.40
2023-04-28T10:28:00.571Z,20.20
2023-04-28T10:30:30.158Z,20.30
2023-04-28T10:33:26.921Z,19.50
2023-04-28T10:35:55.707Z,17.77
2023-04-28T10:38:24.234Z,16.27
2023-04-28T10:40:55.522Z,16.13
2023-04-28T10:43:47.742Z,15.00
2023-04-28T10:46:16.133Z,14.27
2023-04-28T10:48:58.955Z,15.30
2023-04-28T10:51:33.139Z,13.70
2023-04-28T10:54:28.117Z,13.53
2023-04-28T10:57:23.993Z,12.50
2023-04-28T10:59:52.640Z,11.47
2023-04-28T11:02:44.676Z,11.80
2023-04-28T11:05:20.469Z,11.70
2023-04-28T11:08:34.985Z,11.37
2023-04-28T11:11:21.093Z,10.83
2023-04-28T11:13:50.789Z,11.23
2023-04-28T11:16:22.816Z,11.17
2023-04-28T11:18:55.832Z,11.43
2023-04-28T11:21:28.278Z,11.77
2023-04-28T11:23:57.560Z,10.83
2023-04-28T11:26:26.702Z,10.97
2023-04-28T11:28:56.977Z,11.43
2023-04-28T11:31:27.222Z,12.30
2023-04-28T11:34:03.346Z,11.67
2023-04-28T11:36:36.534Z,12.90
2023-04-28T11:39:07.691Z,12.90
2023-04-28T11:41:37.003Z,12.87
2023-04-28T11:44:12.794Z,13.97
2023-04-28T11:46:50.667Z,14.47
2023-04-28T11:49:20.650Z,12.20
2023-04-28T11:51:50.563Z,13.77
2023-04-28T11:54:23.630Z,14.83
2023-04-28T11:56:57.439Z,15.60
2023-04-28T11:59:27.773Z,16.10
2023-04-28T12:01:59.303Z,18.70
2023-04-28T12:04:29.926Z,17.43
2023-04-28T12:07:05.133Z,15.70
2023-04-28T12:09:35.267Z,17.10
2023-04-28T12:12:05.949Z,15.07
2023-04-28T12:14:54.304Z,13.70
2023-04-28T12:17:27.811Z,16.60
2023-04-28T12:19:56.576Z,13.80
2023-04-28T12:22:27.332Z,11.33
2023-04-28T12:25:06.976Z,15.77
2023-04-28T12:27:38.538Z,9.20
2023-04-28T12:30:26.669Z,29.53
2023-04-28T12:32:56.075Z,37.83
2023-04-28T12:35:25.524Z,9.13
2023-04-28T12:38:01.359Z,8.47
2023-04-28T12:40:29.622Z,8.97
2023-04-28T12:42:58.054Z,10.67
2023-04-28T12:45:26.428Z,8.97
2023-04-28T12:47:55.426Z,8.53
2023-04-28T12:50:24.326Z,10.70
2023-04-28T12:52:53.998Z,10.20
2023-04-28T12:55:22.284Z,14.03
2023-04-28T12:57:50.597Z,14.40
2023-04-28T13:00:23.144Z,8.30
2023-04-28T13:02:52.334Z,8.37
2023-04-28T13:05:20.579Z,11.77
2023-04-28T13:07:49.382Z,9.20
2023-04-28T13:10:21.380Z,8.30
2023-04-28T13:12:49.654Z,90.07
2023-04-28T13:15:17.870Z,16.00
2023-04-28T13:17:46.662Z,17.77
2023-04-28T13:20:14.913Z,20.50
2023-04-28T13:22:43.423Z,37.93
2023-04-28T13:25:11.729Z,16.17
2023-04-28T13:27:43.185Z,15.83
2023-04-28T13:30:13.870Z,9.27
2023-04-28T13:32:42.056Z,9.63
2023-04-28T13:35:10.871Z,7.53
2023-04-28T13:37:45.542Z,7.87
2023-04-28T13:40:14.573Z,8.60
2023-04-28T13:42:53.926Z,15.20
2023-04-28T13:45:24.536Z,21.07
2023-04-28T13:47:52.979Z,12.50
2023-04-28T13:50:21.417Z,15.80
2023-04-28T13:52:49.717Z,20.90
2023-04-28T13:55:18.706Z,18.60
2023-04-28T13:57:46.957Z,20.83
2023-04-28T14:00:18.462Z,21.57
2023-04-28T14:02:49.638Z,32.63
2023-04-28T14:05:18.141Z,22.60
2023-04-28T14:07:47.139Z,22.37
2023-04-28T14:10:15.327Z,21.90
2023-04-28T14:12:43.512Z,21.40
2023-04-28T14:15:12.107Z,20.20
2023-04-28T14:17:41.707Z,21.37
2023-04-28T14:20:11.696Z,18.63
2023-04-28T14:22:40.414Z,18.00
2023-04-28T14:25:10.113Z,19.33
2023-04-28T14:27:38.364Z,19.90
2023-04-28T14:30:08.775Z,17.67
2023-04-28T14:32:39.730Z,18.00
2023-04-28T14:35:12.230Z,16.20
2023-04-28T14:37:41.205Z,18.27
2023-04-28T14:40:11.229Z,18.40
2023-04-28T14:42:39.801Z,16.93
2023-04-28T14:45:13.676Z,15.20
2023-04-28T14:47:42.729Z,15.80
2023-04-28T14:50:13.961Z,15.10
2023-04-28T14:52:42.568Z,14.10
2023-04-28T14:55:11.435Z,14.97
2023-04-28T14:57:40.050Z,15.30
2023-04-28T15:00:10.333Z,13.20
2023-04-28T15:02:39.500Z,13.23
2023-04-28T15:05:09.755Z,13.50
2023-04-28T15:07:39.363Z,13.60
2023-04-28T15:10:12.340Z,12.50
2023-04-28T15:12:41.137Z,14.00
2023-04-28T15:15:11.249Z,11.20
2023-04-28T15:17:40.128Z,10.40
2023-04-28T15:20:09.705Z,9.20
2023-04-28T15:22:39.496Z,10.70
2023-04-28T15:25:08.670Z,11.07
2023-04-28T15:27:36.956Z,11.17
2023-04-28T15:30:07.694Z,10.50
2023-04-28T15:32:38.640Z,10.43
2023-04-28T15:35:08.042Z,11.03
2023-04-28T15:37:49.252Z,12.03
2023-04-28T15:40:19.377Z,10.63
2023-04-28T15:42:51.785Z,11.47
2023-04-28T15:45:22.231Z,10.90
2023-04-28T15:47:52.483Z,11.20
2023-04-28T15:50:24.107Z,11.20
2023-04-28T15:52:53.809Z,9.97
2023-04-28T15:55:24.927Z,10.70
2023-04-28T15:57:53.488Z,10.53
2023-04-28T16:00:21.988Z,10.43
2023-04-28T16:02:50.416Z,9.50
2023-04-28T16:05:18.877Z,9.07
2023-04-28T16:07:47.624Z,9.40
2023-04-28T16:10:19.788Z,9.90
2023-04-28T16:12:48.092Z,9.80
2023-04-28T16:15:17.145Z,10.47
2023-04-28T16:17:45.473Z,9.60
2023-04-28T16:20:16.761Z,10.00
2023-04-28T16:22:45.337Z,9.90
2023-04-28T16:25:14.018Z,9.30
2023-04-28T16:27:44.438Z,8.80
2023-04-28T16:30:13.309Z,8.43
2023-04-28T16:32:42.039Z,9.27
2023-04-28T16:35:15.202Z,8.80
2023-04-28T16:37:44.192Z,9.70
2023-04-28T16:40:13.612Z,8.27
2023-04-28T16:42:43.597Z,9.13
2023-04-28T16:45:13.515Z,8.50
2023-04-28T16:47:43.740Z,9.00
2023-04-28T16:50:14.923Z,9.17
2023-04-28T16:52:43.617Z,9.00
2023-04-28T16:55:12.117Z,8.47
2023-04-28T16:57:41.549Z,8.90
2023-04-28T17:00:13.693Z,9.10
2023-04-28T17:02:42.331Z,9.03
2023-04-28T17:05:14.380Z,8.90
2023-04-28T17:07:42.863Z,8.70
2023-04-28T17:10:12.049Z,9.03
2023-04-28T17:12:49.670Z,9.00
2023-04-28T17:15:19.848Z,8.87
2023-04-28T17:17:50.807Z,9.63
2023-04-28T17:20:20.398Z,11.33
2023-04-28T17:22:50.170Z,12.53
2023-04-28T17:25:18.557Z,11.60
2023-04-28T17:27:47.028Z,13.27
2023-04-28T17:30:15.983Z,12.60
2023-04-28T17:32:45.677Z,13.33
2023-04-28T17:35:13.896Z,15.10
2023-04-28T17:37:42.185Z,12.00
2023-04-28T17:40:12.408Z,13.20
2023-04-28T17:42:40.736Z,13.37
2023-04-28T17:45:11.298Z,13.27
2023-04-28T17:47:39.704Z,12.43
2023-04-28T17:50:11.334Z,11.37
2023-04-28T17:52:40.212Z,9.50
2023-04-28T17:55:09.740Z,9.57
2023-04-28T17:57:38.050Z,9.50
2023-04-28T18:00:11.164Z,9.90
2023-04-28T18:02:45.536Z,9.90
2023-04-28T18:05:17.285Z,10.93
2023-04-28T18:07:45.633Z,11.80
2023-04-28T18:10:15.196Z,9.70
2023-04-28T18:12:46.427Z,9.87
2023-04-28T18:15:15.358Z,11.10
2023-04-28T18:17:43.705Z,11.10
2023-04-28T18:20:15.895Z,9.77
2023-04-28T18:22:44.141Z,10.50
2023-04-28T18:25:13.375Z,10.43
2023-04-28T18:27:41.891Z,11.30
2023-04-28T18:30:11.408Z,10.40
2023-04-28T18:32:39.770Z,11.00
2023-04-28T18:35:08.459Z,12.50
2023-04-28T18:37:38.184Z,11.70
2023-04-28T18:40:07.493Z,12.00
2023-04-28T18:42:36.040Z,14.40
2023-04-28T18:45:06.137Z,13.43
2023-04-28T18:47:35.150Z,14.73
2023-04-28T18:50:10.762Z,14.00
2023-04-28T18:52:40.403Z,17.30
2023-04-28T18:55:09.681Z,17.17
2023-04-28T18:57:38.461Z,21.63
2023-04-28T19:00:09.709Z,22.33
2023-04-28T19:02:38.163Z,24.00
2023-04-28T19:05:08.042Z,23.17
2023-04-28T19:07:36.213Z,25.00
2023-04-28T19:10:07.123Z,25.10
2023-04-28T19:12:35.507Z,24.73
2023-04-28T19:15:05.933Z,28.67
2023-04-28T19:17:34.219Z,25.93
2023-04-28T19:20:02.573Z,28.37
2023-04-28T19:22:33.022Z,31.67
2023-04-28T19:25:01.365Z,33.00
2023-04-28T19:27:43.010Z,37.37
2023-04-28T19:30:14.202Z,41.50
2023-04-28T19:32:46.365Z,43.20
2023-04-28T19:35:14.962Z,42.60
2023-04-28T19:37:44.547Z,42.57
2023-04-28T19:40:15.785Z,40.17
2023-04-28T19:42:45.450Z,43.27
2023-04-28T19:45:14.201Z,41.67
2023-04-28T19:47:42.523Z,45.20
2023-04-28T19:50:11.593Z,43.63
2023-04-28T19:52:47.629Z,42.27
2023-04-28T19:55:18.558Z,39.73
2023-04-28T19:57:48.513Z,39.50
2023-04-28T20:00:18.633Z,37.00
2023-04-28T20:02:47.158Z,36.90
2023-04-28T20:05:16.130Z,36.93
2023-04-28T20:07:44.552Z,37.20
2023-04-28T20:10:14.435Z,36.20
2023-04-28T20:12:43.080Z,36.80
2023-04-28T20:15:13.811Z,33.80
2023-04-28T20:17:43.433Z,32.47
2023-04-28T20:20:12.600Z,36.17
2023-04-28T20:22:41.720Z,31.17
2023-04-28T20:25:11.102Z,32.47
2023-04-28T20:27:41.806Z,32.03
2023-04-28T20:30:12.021Z,29.07
2023-04-28T20:32:41.937Z,31.37
2023-04-28T20:35:11.015Z,31.27
2023-04-28T20:37:39.581Z,31.80
2023-04-28T20:40:11.733Z,30.93
2023-04-28T20:42:45.980Z,33.60
2023-04-28T20:45:15.996Z,32.80
2023-04-28T20:47:44.387Z,33.10
2023-04-28T20:50:13.439Z,34.27
2023-04-28T20:52:44.259Z,33.83
2023-04-28T20:55:14.241Z,34.13
2023-04-28T20:57:42.517Z,33.87
2023-04-28T21:00:16.185Z,34.07
2023-04-28T21:02:45.370Z,35.67
2023-04-28T21:05:13.981Z,36.47
2023-04-28T21:07:42.167Z,37.53
2023-04-28T21:10:11.468Z,37.70
2023-04-28T21:12:39.768Z,40.00
2023-04-28T21:15:09.159Z,36.10
2023-04-28T21:17:40.447Z,39.43
2023-04-28T21:20:13.384Z,41.50
2023-04-28T21:22:41.708Z,41.07
2023-04-28T21:25:11.862Z,44.60
2023-04-28T21:27:40.265Z,42.73
2023-04-28T21:30:12.113Z,41.53
2023-04-28T21:32:42.182Z,38.80
2023-04-28T21:35:11.355Z,38.30
2023-04-28T21:37:39.630Z,39.97
2023-04-28T21:40:12.405Z,37.70
2023-04-28T21:42:40.633Z,39.17
2023-04-28T21:45:10.421Z,37.77
2023-04-28T21:47:42.049Z,40.20
2023-04-28T21:50:13.430Z,38.20
2023-04-28T21:52:41.840Z,37.03
2023-04-28T21:55:11.001Z,37.17
2023-04-28T21:57:43.371Z,39.17
2023-04-28T22:00:16.666Z,34.60
2023-04-28T22:02:45.254Z,33.63
2023-04-28T22:05:16.045Z,36.43
2023-04-28T22:07:44.527Z,35.03
2023-04-28T22:10:13.729Z,34.90
2023-04-28T22:12:42.010Z,30.37
2023-04-28T22:15:11.677Z,30.57
2023-04-28T22:17:43.286Z,31.27
2023-04-28T22:20:12.886Z,31.13
2023-04-28T22:22:43.143Z,32.67
2023-04-28T22:25:11.809Z,32.67
2023-04-28T22:27:40.570Z,30.10
2023-04-28T22:30:10.196Z,29.63
2023-04-28T22:32:38.631Z,33.00
2023-04-28T22:35:08.452Z,33.10
2023-04-28T22:37:37.981Z,32.47
2023-04-28T22:40:09.657Z,36.37
2023-04-28T22:42:38.395Z,33.80
2023-04-28T22:45:07.747Z,33.40
2023-04-28T22:47:36.471Z,35.63
2023-04-28T22:50:06.198Z,38.10
2023-04-28T22:52:34.845Z,35.97
2023-04-28T22:55:03.270Z,35.60
2023-04-28T22:57:33.022Z,32.37
2023-04-28T23:00:01.237Z,33.67
2023-04-28T23:02:29.827Z,31.27
2023-04-28T23:04:58.186Z,33.83
2023-04-28T23:07:26.788Z,30.43
2023-04-28T23:09:55.118Z,26.77
2023-04-28T23:12:23.210Z,25.20
2023-04-28T23:14:52.797Z,26.03
2023-04-28T23:17:21.016Z,23.40
2023-04-28T23:19:49.357Z,22.30
2023-04-28T23:22:17.922Z,25.70
2023-04-28T23:24:46.714Z,25.30
2023-04-28T23:27:15.069Z,26.83
2023-04-28T23:29:46.130Z,25.87
2023-04-28T23:32:15.734Z,26.00
2023-04-28T23:34:43.882Z,27.47
2023-04-28T23:37:12.133Z,28.00
2023-04-28T23:39:40.450Z,26.10
2023-04-28T23:42:10.577Z,27.37
2023-04-28T23:44:38.956Z,27.20
2023-04-28T23:47:07.174Z,25.13
2023-04-28T23:49:36.881Z,24.50
2023-04-28T23:52:05.038Z,23.50
2023-04-28T23:54:33.218Z,24.30
2023-04-28T23:57:01.425Z,25.23
2023-04-28T23:59:29.672Z,24.20
